sensor_id;sensor_type;location;lat;lon;timestamp;pressure;altitude;pressure_sealevel;temperature;humidity
66945;BME280;53853;51.982;5.928;2023-02-05T00:01:52;103587.16;;;9.36;76.78
66945;BME280;53853;51.982;5.928;2023-02-05T00:04:22;103592.50;;;9.36;76.97
66945;BME280;53853;51.982;5.928;2023-02-05T00:06:52;103579.19;;;9.36;77.16
66945;BME280;53853;51.982;5.928;2023-02-05T00:09:24;103577.31;;;9.38;77.14
66945;BME280;53853;51.982;5.928;2023-02-05T00:11:54;103582.63;;;9.38;77.52
66945;BME280;53853;51.982;5.928;2023-02-05T00:14:25;103573.56;;;9.42;77.33
66945;BME280;53853;51.982;5.928;2023-02-05T00:16:54;103570.03;;;9.42;76.98
66945;BME280;53853;51.982;5.928;2023-02-05T00:19:24;103559.44;;;9.40;76.97
66945;BME280;53853;51.982;5.928;2023-02-05T00:21:54;103540.81;;;9.40;76.86
66945;BME280;53853;51.982;5.928;2023-02-05T00:24:27;103540.94;;;9.39;77.01
66945;BME280;53853;51.982;5.928;2023-02-05T00:26:57;103525.97;;;9.36;77.29
66945;BME280;53853;51.982;5.928;2023-02-05T00:29:27;103527.69;;;9.37;77.38
66945;BME280;53853;51.982;5.928;2023-02-05T00:31:56;103529.41;;;9.38;77.27
66945;BME280;53853;51.982;5.928;2023-02-05T00:34:27;103549.69;;;9.41;77.14
66945;BME280;53853;51.982;5.928;2023-02-05T00:36:57;103541.63;;;9.42;77.47
66945;BME280;53853;51.982;5.928;2023-02-05T00:39:29;103537.09;;;9.45;77.32
66945;BME280;53853;51.982;5.928;2023-02-05T00:41:59;103532.69;;;9.43;77.27
66945;BME280;53853;51.982;5.928;2023-02-05T00:44:29;103515.00;;;9.42;77.29
66945;BME280;53853;51.982;5.928;2023-02-05T00:47:00;103508.72;;;9.43;77.25
66945;BME280;53853;51.982;5.928;2023-02-05T00:49:30;103505.06;;;9.46;77.32
66945;BME280;53853;51.982;5.928;2023-02-05T00:52:00;103512.06;;;9.49;77.43
66945;BME280;53853;51.982;5.928;2023-02-05T00:54:33;103510.25;;;9.49;77.62
66945;BME280;53853;51.982;5.928;2023-02-05T00:57:03;103512.97;;;9.48;77.57
66945;BME280;53853;51.982;5.928;2023-02-05T00:59:33;103531.53;;;9.49;77.53
66945;BME280;53853;51.982;5.928;2023-02-05T01:02:03;103524.25;;;9.53;77.51
66945;BME280;53853;51.982;5.928;2023-02-05T01:04:33;103524.25;;;9.53;77.37
66945;BME280;53853;51.982;5.928;2023-02-05T01:07:03;103514.56;;;9.52;77.24
66945;BME280;53853;51.982;5.928;2023-02-05T01:09:36;103504.00;;;9.50;77.35
66945;BME280;53853;51.982;5.928;2023-02-05T01:12:06;103509.38;;;9.49;77.38
66945;BME280;53853;51.982;5.928;2023-02-05T01:14:36;103504.00;;;9.50;77.16
66945;BME280;53853;51.982;5.928;2023-02-05T01:17:06;103513.81;;;9.48;77.29
66945;BME280;53853;51.982;5.928;2023-02-05T01:19:36;103511.09;;;9.50;77.18
66945;BME280;53853;51.982;5.928;2023-02-05T01:22:06;103520.81;;;9.51;77.04
66945;BME280;53853;51.982;5.928;2023-02-05T01:24:39;103523.47;;;9.51;77.26
66945;BME280;53853;51.982;5.928;2023-02-05T01:27:11;103532.53;;;9.47;77.56
66945;BME280;53853;51.982;5.928;2023-02-05T01:29:41;103531.53;;;9.49;77.52
66945;BME280;53853;51.982;5.928;2023-02-05T01:32:11;103534.13;;;9.51;77.50
66945;BME280;53853;51.982;5.928;2023-02-05T01:34:41;103528.72;;;9.52;77.58
66945;BME280;53853;51.982;5.928;2023-02-05T01:37:12;103524.25;;;9.53;77.64
66945;BME280;53853;51.982;5.928;2023-02-05T01:39:44;103519.88;;;9.52;77.94
66945;BME280;53853;51.982;5.928;2023-02-05T01:42:18;103534.13;;;9.51;78.12
66945;BME280;53853;51.982;5.928;2023-02-05T01:47:53;103522.69;;;9.49;78.36
66945;BME280;53853;51.982;5.928;2023-02-05T01:50:25;103525.59;;;9.44;78.50
66945;BME280;53853;51.982;5.928;2023-02-05T01:52:58;103520.34;;;9.42;78.79
66945;BME280;53853;51.982;5.928;2023-02-05T01:55:34;103529.25;;;9.41;79.07
66945;BME280;53853;51.982;5.928;2023-02-05T01:58:07;103532.69;;;9.43;79.06
66945;BME280;53853;51.982;5.928;2023-02-05T02:00:37;103533.56;;;9.44;79.32
66945;BME280;53853;51.982;5.928;2023-02-05T02:03:07;103525.59;;;9.44;79.54
66945;BME280;53853;51.982;5.928;2023-02-05T02:05:39;103522.91;;;9.44;79.57
66945;BME280;53853;51.982;5.928;2023-02-05T02:08:10;103513.13;;;9.45;79.63
66945;BME280;53853;51.982;5.928;2023-02-05T02:10:44;103505.06;;;9.46;79.73
66945;BME280;53853;51.982;5.928;2023-02-05T02:13:14;103504.22;;;9.46;79.88
66945;BME280;53853;51.982;5.928;2023-02-05T02:15:45;103510.25;;;9.49;79.53
66945;BME280;53853;51.982;5.928;2023-02-05T02:18:17;103505.75;;;9.50;79.45
66945;BME280;53853;51.982;5.928;2023-02-05T02:24:16;103485.50;;;9.47;79.62
66945;BME280;53853;51.982;5.928;2023-02-05T02:27:12;103489.94;;;9.47;79.56
66945;BME280;53853;51.982;5.928;2023-02-05T02:29:53;103478.38;;;9.48;79.65
66945;BME280;53853;51.982;5.928;2023-02-05T02:32:35;103471.16;;;9.50;79.72
66945;BME280;53853;51.982;5.928;2023-02-05T02:35:10;103477.44;;;9.49;79.78
66945;BME280;53853;51.982;5.928;2023-02-05T02:37:46;103475.63;;;9.49;79.68
66945;BME280;53853;51.982;5.928;2023-02-05T02:40:20;103473.06;;;9.48;79.86
66945;BME280;53853;51.982;5.928;2023-02-05T02:42:56;103467.81;;;9.46;79.92
66945;BME280;53853;51.982;5.928;2023-02-05T02:45:36;103470.31;;;9.49;79.93
66945;BME280;53853;51.982;5.928;2023-02-05T02:48:12;103465.84;;;9.50;80.01
66945;BME280;53853;51.982;5.928;2023-02-05T02:50:46;103485.19;;;9.53;79.84
66945;BME280;53853;51.982;5.928;2023-02-05T02:53:21;103484.31;;;9.53;79.75
66945;BME280;53853;51.982;5.928;2023-02-05T02:55:54;103476.41;;;9.51;79.97
66945;BME280;53853;51.982;5.928;2023-02-05T02:58:28;103463.19;;;9.50;80.10
66945;BME280;53853;51.982;5.928;2023-02-05T03:01:04;103464.91;;;9.51;79.99
66945;BME280;53853;51.982;5.928;2023-02-05T03:03:37;103457.69;;;9.53;80.02
66945;BME280;53853;51.982;5.928;2023-02-05T03:06:10;103446.91;;;9.56;79.87
66945;BME280;53853;51.982;5.928;2023-02-05T03:08:48;103441.72;;;9.53;79.90
66945;BME280;53853;51.982;5.928;2023-02-05T03:11:19;103448.00;;;9.52;79.67
66945;BME280;53853;51.982;5.928;2023-02-05T03:13:49;103446.19;;;9.52;79.81
66945;BME280;53853;51.982;5.928;2023-02-05T03:16:26;103436.47;;;9.51;79.63
66945;BME280;53853;51.982;5.928;2023-02-05T03:18:56;103438.38;;;9.49;79.73
66945;BME280;53853;51.982;5.928;2023-02-05T03:21:33;103447.34;;;9.47;79.86
66945;BME280;53853;51.982;5.928;2023-02-05T03:24:06;103450.03;;;9.47;79.93
66945;BME280;53853;51.982;5.928;2023-02-05T03:26:37;103460.66;;;9.47;79.97
66945;BME280;53853;51.982;5.928;2023-02-05T03:29:20;103453.66;;;9.46;80.19
66945;BME280;53853;51.982;5.928;2023-02-05T03:32:04;103461.72;;;9.44;80.01
66945;BME280;53853;51.982;5.928;2023-02-05T03:34:43;103469.69;;;9.44;79.99
66945;BME280;53853;51.982;5.928;2023-02-05T03:37:25;103490.09;;;9.43;80.04
66945;BME280;53853;51.982;5.928;2023-02-05T03:40:09;103488.31;;;9.44;80.07
66945;BME280;53853;51.982;5.928;2023-02-05T03:42:48;103481.34;;;9.41;80.05
66945;BME280;53853;51.982;5.928;2023-02-05T03:45:31;103479.59;;;9.40;79.89
66945;BME280;53853;51.982;5.928;2023-02-05T03:48:27;103467.94;;;9.43;79.45
66945;BME280;53853;51.982;5.928;2023-02-05T03:51:11;103476.00;;;9.41;79.33
66945;BME280;53853;51.982;5.928;2023-02-05T03:53:48;103468.03;;;9.41;78.96
66945;BME280;53853;51.982;5.928;2023-02-05T03:56:24;103463.75;;;9.39;78.73
66945;BME280;53853;51.982;5.928;2023-02-05T03:58:58;103462.00;;;9.38;78.77
66945;BME280;53853;51.982;5.928;2023-02-05T04:01:29;103461.09;;;9.39;78.88
66945;BME280;53853;51.982;5.928;2023-02-05T04:04:02;103465.53;;;9.38;78.95
66945;BME280;53853;51.982;5.928;2023-02-05T04:06:32;103470.00;;;9.38;78.89
66945;BME280;53853;51.982;5.928;2023-02-05T04:09:02;103463.97;;;9.34;78.88
66945;BME280;53853;51.982;5.928;2023-02-05T04:11:32;103472.03;;;9.33;78.86
66945;BME280;53853;51.982;5.928;2023-02-05T04:14:04;103461.31;;;9.34;78.06
66945;BME280;53853;51.982;5.928;2023-02-05T04:16:35;103460.66;;;9.29;78.29
66945;BME280;53853;51.982;5.928;2023-02-05T04:19:08;103465.97;;;9.29;78.03
66945;BME280;53853;51.982;5.928;2023-02-05T04:21:38;103458.16;;;9.26;78.04
66945;BME280;53853;51.982;5.928;2023-02-05T04:24:08;103456.44;;;9.25;78.00
66945;BME280;53853;51.982;5.928;2023-02-05T04:26:38;103460.03;;;9.24;77.62
66945;BME280;53853;51.982;5.928;2023-02-05T04:29:08;103452.91;;;9.24;77.47
66945;BME280;53853;51.982;5.928;2023-02-05T04:31:43;103451.28;;;9.22;77.29
66945;BME280;53853;51.982;5.928;2023-02-05T04:34:16;103454.88;;;9.21;77.25
66945;BME280;53853;51.982;5.928;2023-02-05T04:36:46;103449.69;;;9.18;77.60
66945;BME280;53853;51.982;5.928;2023-02-05T04:39:17;103461.38;;;9.15;77.59
66945;BME280;53853;51.982;5.928;2023-02-05T04:41:47;103459.63;;;9.14;77.27
66945;BME280;53853;51.982;5.928;2023-02-05T04:44:17;103456.28;;;9.11;77.17
66945;BME280;53853;51.982;5.928;2023-02-05T04:46:47;103456.28;;;9.11;77.43
66945;BME280;53853;51.982;5.928;2023-02-05T04:49:19;103455.38;;;9.10;77.60
66945;BME280;53853;51.982;5.928;2023-02-05T04:51:49;103457.28;;;9.08;77.48
66945;BME280;53853;51.982;5.928;2023-02-05T04:54:19;103465.25;;;9.08;77.50
66945;BME280;53853;51.982;5.928;2023-02-05T04:56:49;103461.81;;;9.06;77.47
66945;BME280;53853;51.982;5.928;2023-02-05T04:59:19;103451.09;;;9.07;77.66
66945;BME280;53853;51.982;5.928;2023-02-05T05:01:49;103446.72;;;9.06;77.58
66945;BME280;53853;51.982;5.928;2023-02-05T05:04:21;103452.94;;;9.05;78.01
66945;BME280;53853;51.982;5.928;2023-02-05T05:06:51;103457.34;;;9.06;78.26
66945;BME280;53853;51.982;5.928;2023-02-05T05:09:21;103457.41;;;9.05;78.12
66945;BME280;53853;51.982;5.928;2023-02-05T05:11:51;103454.84;;;9.03;78.30
66945;BME280;53853;51.982;5.928;2023-02-05T05:14:22;103461.13;;;9.02;78.35
66945;BME280;53853;51.982;5.928;2023-02-05T05:16:52;103462.03;;;9.01;78.53
66945;BME280;53853;51.982;5.928;2023-02-05T05:19:24;103457.72;;;8.99;78.33
66945;BME280;53853;51.982;5.928;2023-02-05T05:21:54;103458.75;;;8.96;78.95
66945;BME280;53853;51.982;5.928;2023-02-05T05:24:24;103464.91;;;8.97;79.11
66945;BME280;53853;51.982;5.928;2023-02-05T05:26:54;103458.81;;;8.95;79.29
66945;BME280;53853;51.982;5.928;2023-02-05T05:29:24;103466.81;;;8.95;79.34
66945;BME280;53853;51.982;5.928;2023-02-05T05:31:54;103462.41;;;8.94;79.78
66945;BME280;53853;51.982;5.928;2023-02-05T05:34:26;103458.91;;;8.93;79.67
66945;BME280;53853;51.982;5.928;2023-02-05T05:36:56;103454.50;;;8.92;79.85
66945;BME280;53853;51.982;5.928;2023-02-05T05:39:26;103454.56;;;8.91;80.17
66945;BME280;53853;51.982;5.928;2023-02-05T05:42:09;103444.94;;;8.88;80.19
66945;BME280;53853;51.982;5.928;2023-02-05T05:44:52;103437.22;;;8.83;80.22
66945;BME280;53853;51.982;5.928;2023-02-05T05:47:22;103439.22;;;8.78;80.41
66945;BME280;53853;51.982;5.928;2023-02-05T05:49:54;103431.59;;;8.70;80.57
66945;BME280;53853;51.982;5.928;2023-02-05T05:52:24;103422.84;;;8.68;80.59
66945;BME280;53853;51.982;5.928;2023-02-05T05:54:54;103421.09;;;8.67;80.70
66945;BME280;53853;51.982;5.928;2023-02-05T05:57:24;103421.19;;;8.66;80.90
66945;BME280;53853;51.982;5.928;2023-02-05T05:59:54;103430.97;;;8.65;80.70
66945;BME280;53853;51.982;5.928;2023-02-05T06:02:24;103434.47;;;8.66;80.86
66945;BME280;53853;51.982;5.928;2023-02-05T06:04:56;103438.09;;;8.65;80.78
66945;BME280;53853;51.982;5.928;2023-02-05T06:07:28;103428.31;;;8.65;81.00
66945;BME280;53853;51.982;5.928;2023-02-05T06:09:57;103431.81;;;8.66;80.22
66945;BME280;53853;51.982;5.928;2023-02-05T06:12:27;103415.88;;;8.66;80.15
66945;BME280;53853;51.982;5.928;2023-02-05T06:14:57;103419.41;;;8.66;79.65
66945;BME280;53853;51.982;5.928;2023-02-05T06:17:27;103415.97;;;8.64;79.50
66945;BME280;53853;51.982;5.928;2023-02-05T06:19:59;103412.56;;;8.61;79.32
66945;BME280;53853;51.982;5.928;2023-02-05T06:22:29;103419.69;;;8.60;79.63
66945;BME280;53853;51.982;5.928;2023-02-05T06:24:59;103421.56;;;8.58;80.09
66945;BME280;53853;51.982;5.928;2023-02-05T06:27:30;103431.38;;;8.37;79.70
66945;BME280;53853;51.982;5.928;2023-02-05T06:30:00;103440.13;;;8.20;80.09
66945;BME280;53853;51.982;5.928;2023-02-05T06:32:30;103442.19;;;8.13;80.31
66945;BME280;53853;51.982;5.928;2023-02-05T06:35:03;103448.84;;;8.03;80.36
66945;BME280;53853;51.982;5.928;2023-02-05T06:37:33;103474.91;;;7.95;80.45
66945;BME280;53853;51.982;5.928;2023-02-05T06:40:04;103472.25;;;7.74;79.88
66945;BME280;53853;51.982;5.928;2023-02-05T06:42:34;103480.41;;;7.70;80.45
66945;BME280;53853;51.982;5.928;2023-02-05T06:45:04;103484.09;;;7.66;80.51
66945;BME280;53853;51.982;5.928;2023-02-05T06:47:35;103486.50;;;7.51;79.29
66945;BME280;53853;51.982;5.928;2023-02-05T06:50:08;103500.00;;;7.45;79.00
66945;BME280;53853;51.982;5.928;2023-02-05T06:52:38;103516.22;;;7.37;79.15
66945;BME280;53853;51.982;5.928;2023-02-05T06:55:08;103513.03;;;7.29;78.83
66945;BME280;53853;51.982;5.928;2023-02-05T06:57:38;103530.03;;;7.25;79.28
66945;BME280;53853;51.982;5.928;2023-02-05T07:00:10;103525.94;;;7.16;79.29
66945;BME280;53853;51.982;5.928;2023-02-05T07:02:40;103531.47;;;7.10;79.47
66945;BME280;53853;51.982;5.928;2023-02-05T07:05:12;103538.63;;;7.08;79.63
66945;BME280;53853;51.982;5.928;2023-02-05T07:07:42;103548.41;;;7.07;79.22
66945;BME280;53853;51.982;5.928;2023-02-05T07:10:12;103550.09;;;7.08;79.69
66945;BME280;53853;51.982;5.928;2023-02-05T07:12:42;103568.78;;;7.05;79.99
66945;BME280;53853;51.982;5.928;2023-02-05T07:15:12;103566.38;;;6.99;80.17
66945;BME280;53853;51.982;5.928;2023-02-05T07:17:42;103560.09;;;7.02;80.48
66945;BME280;53853;51.982;5.928;2023-02-05T07:20:15;103571.78;;;6.96;80.54
66945;BME280;53853;51.982;5.928;2023-02-05T07:22:45;103571.88;;;6.95;80.92
66945;BME280;53853;51.982;5.928;2023-02-05T07:25:15;103578.81;;;6.97;80.61
66945;BME280;53853;51.982;5.928;2023-02-05T07:27:45;103579.56;;;7.01;80.81
66945;BME280;53853;51.982;5.928;2023-02-05T07:30:15;103589.31;;;7.00;80.53
66945;BME280;53853;51.982;5.928;2023-02-05T07:32:45;103604.31;;;7.01;80.54
66945;BME280;53853;51.982;5.928;2023-02-05T07:35:18;103590.88;;;7.06;80.14
66945;BME280;53853;51.982;5.928;2023-02-05T07:37:48;103594.31;;;7.08;79.79
66945;BME280;53853;51.982;5.928;2023-02-05T07:40:18;103597.84;;;7.08;79.71
66945;BME280;53853;51.982;5.928;2023-02-05T07:42:48;103600.53;;;7.07;79.45
66945;BME280;53853;51.982;5.928;2023-02-05T07:45:18;103597.78;;;7.10;79.52
66945;BME280;53853;51.982;5.928;2023-02-05T07:47:48;103618.13;;;7.10;79.51
66945;BME280;53853;51.982;5.928;2023-02-05T07:50:22;103612.78;;;7.11;79.44
66945;BME280;53853;51.982;5.928;2023-02-05T07:52:52;103620.63;;;7.14;79.27
66945;BME280;53853;51.982;5.928;2023-02-05T07:55:22;103621.53;;;7.13;78.89
66945;BME280;53853;51.982;5.928;2023-02-05T07:57:51;103628.56;;;7.14;79.21
66945;BME280;53853;51.982;5.928;2023-02-05T08:00:21;103622.22;;;7.18;79.29
66945;BME280;53853;51.982;5.928;2023-02-05T08:02:51;103612.44;;;7.20;79.37
66945;BME280;53853;51.982;5.928;2023-02-05T08:05:24;103628.22;;;7.23;79.18
66945;BME280;53853;51.982;5.928;2023-02-05T08:07:54;103631.56;;;7.29;78.97
66945;BME280;53853;51.982;5.928;2023-02-05T08:10:24;103623.47;;;7.32;79.44
66945;BME280;53853;51.982;5.928;2023-02-05T08:12:54;103644.03;;;7.27;79.63
66945;BME280;53853;51.982;5.928;2023-02-05T08:15:24;103629.03;;;7.25;80.21
66945;BME280;53853;51.982;5.928;2023-02-05T08:17:54;103643.13;;;7.26;80.80
66945;BME280;53853;51.982;5.928;2023-02-05T08:20:26;103629.03;;;7.25;81.12
66945;BME280;53853;51.982;5.928;2023-02-05T08:22:56;103642.28;;;7.25;81.29
66945;BME280;53853;51.982;5.928;2023-02-05T08:25:30;103636.19;;;7.23;80.98
66945;BME280;53853;51.982;5.928;2023-02-05T08:28:00;103645.16;;;7.19;81.14
66945;BME280;53853;51.982;5.928;2023-02-05T08:30:30;103643.41;;;7.18;81.08
66945;BME280;53853;51.982;5.928;2023-02-05T08:33:00;103640.78;;;7.18;81.25
66945;BME280;53853;51.982;5.928;2023-02-05T08:35:33;103638.13;;;7.18;81.31
66945;BME280;53853;51.982;5.928;2023-02-05T08:38:02;103642.69;;;7.15;81.37
66945;BME280;53853;51.982;5.928;2023-02-05T08:40:33;103652.44;;;7.14;81.57
66945;BME280;53853;51.982;5.928;2023-02-05T08:43:03;103663.16;;;7.11;81.84
66945;BME280;53853;51.982;5.928;2023-02-05T08:45:34;103650.69;;;7.13;82.26
66945;BME280;53853;51.982;5.928;2023-02-05T08:48:05;103670.31;;;7.09;82.69
66945;BME280;53853;51.982;5.928;2023-02-05T08:50:37;103657.97;;;7.08;82.57
66945;BME280;53853;51.982;5.928;2023-02-05T08:53:07;103642.28;;;7.02;82.52
66945;BME280;53853;51.982;5.928;2023-02-05T08:55:37;103666.88;;;7.05;82.94
66945;BME280;53853;51.982;5.928;2023-02-05T08:58:07;103661.59;;;7.05;82.89
66945;BME280;53853;51.982;5.928;2023-02-05T09:00:37;103668.00;;;7.00;82.68
66945;BME280;53853;51.982;5.928;2023-02-05T09:03:07;103660.03;;;7.00;82.67
66945;BME280;53853;51.982;5.928;2023-02-05T09:05:40;103658.41;;;6.96;82.51
66945;BME280;53853;51.982;5.928;2023-02-05T09:08:10;103664.53;;;6.98;83.01
66945;BME280;53853;51.982;5.928;2023-02-05T09:10:43;103654.84;;;6.97;82.73
66945;BME280;53853;51.982;5.928;2023-02-05T09:13:13;103683.13;;;6.96;83.10
66945;BME280;53853;51.982;5.928;2023-02-05T09:15:43;103669.88;;;6.96;82.53
66945;BME280;53853;51.982;5.928;2023-02-05T09:18:14;103680.38;;;6.99;82.63
66945;BME280;53853;51.982;5.928;2023-02-05T09:20:48;103671.34;;;7.05;82.79
66945;BME280;53853;51.982;5.928;2023-02-05T09:23:20;103678.00;;;7.15;82.77
66945;BME280;53853;51.982;5.928;2023-02-05T09:25:50;103676.81;;;7.24;82.26
66945;BME280;53853;51.982;5.928;2023-02-05T09:28:20;103680.09;;;7.31;81.86
66945;BME280;53853;51.982;5.928;2023-02-05T09:30:50;103672.81;;;7.36;81.98
66945;BME280;53853;51.982;5.928;2023-02-05T09:33:20;103679.88;;;7.37;80.86
66945;BME280;53853;51.982;5.928;2023-02-05T09:35:52;103679.00;;;7.36;79.47
66945;BME280;53853;51.982;5.928;2023-02-05T09:38:22;103672.59;;;7.42;80.14
66945;BME280;53853;51.982;5.928;2023-02-05T09:40:56;103671.63;;;7.44;79.64
66945;BME280;53853;51.982;5.928;2023-02-05T09:43:38;103668.84;;;7.48;79.07
66945;BME280;53853;51.982;5.928;2023-02-05T09:46:16;103673.19;;;7.50;79.70
66945;BME280;53853;51.982;5.928;2023-02-05T09:48:54;103669.75;;;7.47;78.83
66945;BME280;53853;51.982;5.928;2023-02-05T09:51:34;103666.06;;;7.51;79.31
66945;BME280;53853;51.982;5.928;2023-02-05T09:54:12;103676.56;;;7.54;78.18
66945;BME280;53853;51.982;5.928;2023-02-05T09:56:44;103679.41;;;7.49;78.04
66945;BME280;53853;51.982;5.928;2023-02-05T09:59:17;103683.59;;;7.55;77.96
66945;BME280;53853;51.982;5.928;2023-02-05T10:01:50;103669.28;;;7.59;76.74
66945;BME280;53853;51.982;5.928;2023-02-05T10:04:20;103673.63;;;7.61;77.01
66945;BME280;53853;51.982;5.928;2023-02-05T10:07:12;103675.28;;;7.64;76.32
66945;BME280;53853;51.982;5.928;2023-02-05T10:10:04;103669.91;;;7.66;76.12
66945;BME280;53853;51.982;5.928;2023-02-05T10:12:48;103692.09;;;7.65;75.19
66945;BME280;53853;51.982;5.928;2023-02-05T10:15:31;103702.69;;;7.65;73.83
66945;BME280;53853;51.982;5.928;2023-02-05T10:18:11;103673.50;;;7.65;72.64
66945;BME280;53853;51.982;5.928;2023-02-05T10:20:55;103655.72;;;7.67;72.99
66945;BME280;53853;51.982;5.928;2023-02-05T10:23:44;103657.47;;;7.68;72.82
66945;BME280;53853;51.982;5.928;2023-02-05T10:26:24;103663.31;;;7.76;73.41
66945;BME280;53853;51.982;5.928;2023-02-05T10:29:16;103675.53;;;7.80;73.02
66945;BME280;53853;51.982;5.928;2023-02-05T10:31:59;103673.50;;;7.87;73.21
66945;BME280;53853;51.982;5.928;2023-02-05T10:34:52;103666.81;;;7.98;73.35
66945;BME280;53853;51.982;5.928;2023-02-05T10:37:36;103674.66;;;8.02;71.58
66945;BME280;53853;51.982;5.928;2023-02-05T10:40:15;103687.75;;;8.06;71.51
66945;BME280;53853;51.982;5.928;2023-02-05T10:42:50;103690.28;;;8.09;71.22
66945;BME280;53853;51.982;5.928;2023-02-05T10:45:23;103674.28;;;8.11;71.47
66945;BME280;53853;51.982;5.928;2023-02-05T10:48:10;103684.03;;;8.10;71.04
66945;BME280;53853;51.982;5.928;2023-02-05T10:50:48;103688.16;;;8.18;72.64
66945;BME280;53853;51.982;5.928;2023-02-05T10:53:22;103699.66;;;8.18;71.47
66945;BME280;53853;51.982;5.928;2023-02-05T10:55:56;103713.69;;;8.22;72.21
66945;BME280;53853;51.982;5.928;2023-02-05T10:58:37;103730.72;;;8.16;71.16
66945;BME280;53853;51.982;5.928;2023-02-05T11:01:12;103727.22;;;8.15;71.40
66945;BME280;53853;51.982;5.928;2023-02-05T11:03:55;103719.19;;;8.17;71.17
66945;BME280;53853;51.982;5.928;2023-02-05T11:06:30;103710.97;;;8.23;71.41
66945;BME280;53853;51.982;5.928;2023-02-05T11:09:01;103716.28;;;8.23;70.51
66945;BME280;53853;51.982;5.928;2023-02-05T11:11:33;103709.72;;;8.32;70.46
66945;BME280;53853;51.982;5.928;2023-02-05T11:14:05;103711.25;;;8.38;69.43
66945;BME280;53853;51.982;5.928;2023-02-05T11:16:38;103718.06;;;8.45;69.65
66945;BME280;53853;51.982;5.928;2023-02-05T11:19:18;103708.09;;;8.50;69.77
66945;BME280;53853;51.982;5.928;2023-02-05T11:21:51;103705.09;;;8.58;70.46
66945;BME280;53853;51.982;5.928;2023-02-05T11:24:29;103695.00;;;8.66;69.77
66945;BME280;53853;51.982;5.928;2023-02-05T11:27:30;103713.28;;;8.74;69.32
66945;BME280;53853;51.982;5.928;2023-02-05T11:30:18;103722.78;;;8.79;68.81
66945;BME280;53853;51.982;5.928;2023-02-05T11:32:51;103736.34;;;8.73;67.91
66945;BME280;53853;51.982;5.928;2023-02-05T11:35:23;103719.34;;;8.77;68.85
66945;BME280;53853;51.982;5.928;2023-02-05T11:37:59;103738.63;;;8.82;68.65
66945;BME280;53853;51.982;5.928;2023-02-05T11:40:30;103741.16;;;8.85;67.50
66945;BME280;53853;51.982;5.928;2023-02-05T11:43:05;103718.84;;;8.88;67.89
66945;BME280;53853;51.982;5.928;2023-02-05T11:45:38;103724.03;;;8.91;66.87
66945;BME280;53853;51.982;5.928;2023-02-05T11:48:23;103717.78;;;8.92;66.50
66945;BME280;53853;51.982;5.928;2023-02-05T11:50:55;103710.88;;;8.88;66.38
66945;BME280;53853;51.982;5.928;2023-02-05T11:53:25;103708.16;;;8.89;65.80
66945;BME280;53853;51.982;5.928;2023-02-05T11:55:57;103713.19;;;8.96;66.19
66945;BME280;53853;51.982;5.928;2023-02-05T11:58:31;103711.94;;;9.04;66.53
66945;BME280;53853;51.982;5.928;2023-02-05T12:01:04;103733.16;;;9.06;65.45
66945;BME280;53853;51.982;5.928;2023-02-05T12:03:34;103726.09;;;9.05;65.56
66945;BME280;53853;51.982;5.928;2023-02-05T12:06:13;103739.59;;;9.00;65.91
66945;BME280;53853;51.982;5.928;2023-02-05T12:08:47;103730.03;;;8.96;66.63
66945;BME280;53853;51.982;5.928;2023-02-05T12:11:28;103733.75;;;8.92;67.79
66945;BME280;53853;51.982;5.928;2023-02-05T12:14:27;103740.94;;;8.90;67.93
66945;BME280;53853;51.982;5.928;2023-02-05T12:20:14;103730.66;;;8.82;65.36
66945;BME280;53853;51.982;5.928;2023-02-05T12:23:09;103730.44;;;8.87;66.51
66945;BME280;53853;51.982;5.928;2023-02-05T12:25:44;103725.19;;;8.85;65.28
66945;BME280;53853;51.982;5.928;2023-02-05T12:28:28;103734.81;;;8.88;65.42
66945;BME280;53853;51.982;5.928;2023-02-05T12:31:15;103729.22;;;8.94;64.24
66945;BME280;53853;51.982;5.928;2023-02-05T12:34:10;103763.53;;;9.00;62.12
66945;BME280;53853;51.982;5.928;2023-02-05T12:37:01;103728.41;;;9.13;63.68
66945;BME280;53853;51.982;5.928;2023-02-05T12:39:44;103726.06;;;9.25;63.03
66945;BME280;53853;51.982;5.928;2023-02-05T12:42:24;103736.28;;;9.35;63.05
66945;BME280;53853;51.982;5.928;2023-02-05T12:45:03;103741.59;;;9.35;62.18
66945;BME280;53853;51.982;5.928;2023-02-05T12:47:48;103733.41;;;9.39;64.46
66945;BME280;53853;51.982;5.928;2023-02-05T12:50:38;103748.34;;;9.42;64.13
66945;BME280;53853;51.982;5.928;2023-02-05T12:53:34;103747.66;;;9.38;65.10
66945;BME280;53853;51.982;5.928;2023-02-05T12:59:13;103738.72;;;9.20;66.64
66945;BME280;53853;51.982;5.928;2023-02-05T13:01:49;103739.44;;;9.24;67.77
66945;BME280;53853;51.982;5.928;2023-02-05T13:04:33;103750.00;;;9.25;66.07
66945;BME280;53853;51.982;5.928;2023-02-05T13:07:18;103758.13;;;9.22;63.62
66945;BME280;53853;51.982;5.928;2023-02-05T13:09:54;103761.75;;;9.21;64.70
66945;BME280;53853;51.982;5.928;2023-02-05T13:12:27;103752.88;;;9.21;65.50
66945;BME280;53853;51.982;5.928;2023-02-05T13:15:06;103772.53;;;9.18;63.99
66945;BME280;53853;51.982;5.928;2023-02-05T13:17:49;103769.72;;;9.21;64.86
66945;BME280;53853;51.982;5.928;2023-02-05T13:20:27;103763.91;;;9.32;63.86
66945;BME280;53853;51.982;5.928;2023-02-05T13:23:12;103770.69;;;9.39;62.60
66945;BME280;53853;51.982;5.928;2023-02-05T13:25:55;103763.28;;;9.46;61.58
66945;BME280;53853;51.982;5.928;2023-02-05T13:28:40;103770.41;;;9.46;60.82
66945;BME280;53853;51.982;5.928;2023-02-05T13:31:25;103774.41;;;9.35;58.96
66945;BME280;53853;51.982;5.928;2023-02-05T13:34:01;103785.78;;;9.39;59.80
66945;BME280;53853;51.982;5.928;2023-02-05T13:39:59;103788.22;;;9.43;58.92
66945;BME280;53853;51.982;5.928;2023-02-05T13:43:04;103790.81;;;9.45;59.32
66945;BME280;53853;51.982;5.928;2023-02-05T13:49:03;103802.00;;;9.53;59.29
66945;BME280;53853;51.982;5.928;2023-02-05T13:51:40;103810.72;;;9.57;57.86
66945;BME280;53853;51.982;5.928;2023-02-05T13:57:23;103827.53;;;9.57;55.54
66945;BME280;53853;51.982;5.928;2023-02-05T14:00:00;103807.91;;;9.60;56.64